Time;durP1;ratioP1;P1;durP2;ratioP2;P2;SDS_P1;SDS_P2;PMS_P1;PMS_P2;Temp;Humidity;BMP_temperature;BMP_pressure;BME280_temperature;BME280_humidity;BME280_pressure;Samples;Min_cycle;Max_cycle;Signal;HPM_P1;HPM_P2
2023/04/27 00:01:25;;;;;;;19.47;9.27;;;;;;;;;;5069617;28;20095;-60
2023/04/27 00:03:51;;;;;;;24.63;9.07;;;;;;;;;;5069624;28;20626;-60
2023/04/27 00:06:17;;;;;;;25.63;9.33;;;;;;;;;;5068993;28;20309;-60
2023/04/27 00:08:43;;;;;;;21.07;8.87;;;;;;;;;;5069321;28;20668;-59
2023/04/27 00:11:09;;;;;;;23.67;8.83;;;;;;;;;;5069650;28;20585;-60
2023/04/27 00:13:35;;;;;;;19.03;9.33;;;;;;;;;;5059952;28;20847;-60
2023/04/27 00:16:02;;;;;;;17.37;8.70;;;;;;;;;;5049478;28;20276;-60
2023/04/27 00:18:29;;;;;;;20.80;9.43;;;;;;;;;;5050509;28;20654;-60
2023/04/27 00:20:56;;;;;;;20.27;9.30;;;;;;;;;;5069190;28;20333;-59
2023/04/27 00:23:22;;;;;;;19.47;8.70;;;;;;;;;;5048279;28;20311;-59
2023/04/27 00:25:48;;;;;;;18.10;8.60;;;;;;;;;;5049306;28;20287;-59
2023/04/27 00:28:14;;;;;;;24.17;9.00;;;;;;;;;;5048965;28;20310;-60
2023/04/27 00:30:40;;;;;;;19.97;9.57;;;;;;;;;;5048912;28;20447;-60
2023/04/27 00:33:06;;;;;;;21.07;9.07;;;;;;;;;;5063138;28;20353;-59
2023/04/27 00:35:33;;;;;;;21.53;9.33;;;;;;;;;;5063469;28;20302;-60
2023/04/27 00:37:59;;;;;;;27.13;10.33;;;;;;;;;;5059961;28;20295;-59
2023/04/27 00:40:25;;;;;;;23.70;9.60;;;;;;;;;;5051767;28;20291;-60
2023/04/27 00:42:51;;;;;;;22.50;9.60;;;;;;;;;;5048980;28;20294;-60
2023/04/27 00:45:17;;;;;;;27.00;11.53;;;;;;;;;;5048858;28;20294;-59
2023/04/27 00:47:43;;;;;;;22.50;10.50;;;;;;;;;;5048236;28;20785;-60
2023/04/27 00:50:10;;;;;;;23.93;11.53;;;;;;;;;;5048958;28;20099;-60
2023/04/27 00:52:37;;;;;;;26.03;10.30;;;;;;;;;;5067385;28;20390;-60
2023/04/27 00:55:03;;;;;;;19.63;9.73;;;;;;;;;;5068345;28;20305;-59
2023/04/27 00:57:30;;;;;;;24.43;10.73;;;;;;;;;;5068885;28;20828;-60
2023/04/27 00:59:56;;;;;;;20.90;9.20;;;;;;;;;;5068666;28;20774;-60
2023/04/27 01:02:22;;;;;;;22.13;9.63;;;;;;;;;;5054564;28;20299;-60
2023/04/27 01:04:49;;;;;;;23.50;9.90;;;;;;;;;;5063896;28;20762;-61
2023/04/27 01:07:15;;;;;;;20.23;8.57;;;;;;;;;;5069231;28;20709;-59
2023/04/27 01:09:41;;;;;;;22.27;7.57;;;;;;;;;;5066822;28;20307;-60
2023/04/27 01:12:07;;;;;;;19.20;7.67;;;;;;;;;;5047766;28;20280;-60
2023/04/27 01:14:35;;;;;;;16.73;7.97;;;;;;;;;;5048697;28;20491;-60
2023/04/27 01:17:01;;;;;;;19.43;7.20;;;;;;;;;;5048759;28;20382;-60
2023/04/27 01:19:27;;;;;;;16.70;8.43;;;;;;;;;;5048655;28;20371;-60
2023/04/27 01:21:53;;;;;;;17.73;8.53;;;;;;;;;;5048507;28;20052;-59
2023/04/27 01:24:20;;;;;;;18.93;8.90;;;;;;;;;;5048237;28;20287;-59
2023/04/27 01:26:46;;;;;;;18.73;7.67;;;;;;;;;;5048829;28;20828;-59
2023/04/27 01:29:12;;;;;;;17.73;7.47;;;;;;;;;;5064112;28;20863;-60
2023/04/27 01:31:38;;;;;;;22.47;8.17;;;;;;;;;;5067493;28;20306;-60
2023/04/27 01:34:04;;;;;;;21.77;9.07;;;;;;;;;;5070079;28;20279;-59
2023/04/27 01:36:31;;;;;;;20.10;9.90;;;;;;;;;;5071709;28;20048;-60
2023/04/27 01:38:57;;;;;;;21.43;9.90;;;;;;;;;;5071057;28;20290;-60
2023/04/27 01:41:23;;;;;;;26.70;10.27;;;;;;;;;;5071782;28;20326;-60
2023/04/27 01:43:49;;;;;;;21.77;9.30;;;;;;;;;;5071668;28;20451;-60
2023/04/27 01:46:15;;;;;;;21.63;9.53;;;;;;;;;;5071215;28;20402;-59
2023/04/27 01:48:41;;;;;;;23.60;10.17;;;;;;;;;;5071212;28;20826;-60
2023/04/27 01:51:07;;;;;;;29.60;11.97;;;;;;;;;;5071344;28;20369;-59
2023/04/27 01:53:33;;;;;;;30.53;11.80;;;;;;;;;;5051348;28;20307;-60
2023/04/27 01:55:59;;;;;;;28.73;12.03;;;;;;;;;;5050920;28;20650;-59
2023/04/27 01:58:26;;;;;;;23.80;10.67;;;;;;;;;;5051474;28;20284;-60
2023/04/27 02:00:52;;;;;;;26.67;11.27;;;;;;;;;;5050613;28;20283;-60
2023/04/27 02:03:18;;;;;;;19.33;9.80;;;;;;;;;;5051828;28;20280;-60
2023/04/27 02:05:45;;;;;;;18.20;8.63;;;;;;;;;;5051390;28;20272;-60
2023/04/27 02:08:11;;;;;;;27.80;12.13;;;;;;;;;;5051382;28;20304;-60
2023/04/27 02:10:37;;;;;;;27.80;11.83;;;;;;;;;;5050820;28;20358;-60
2023/04/27 02:13:03;;;;;;;26.83;11.70;;;;;;;;;;5051419;28;20275;-60
2023/04/27 02:15:30;;;;;;;26.83;12.17;;;;;;;;;;5051112;28;20777;-60
2023/04/27 02:17:57;;;;;;;24.57;11.33;;;;;;;;;;5051317;28;20354;-60
2023/04/27 02:20:23;;;;;;;30.67;14.37;;;;;;;;;;5050936;28;20275;-60
2023/04/27 02:22:49;;;;;;;33.77;14.20;;;;;;;;;;5051937;28;20382;-60
2023/04/27 02:25:15;;;;;;;33.53;15.70;;;;;;;;;;5050932;28;20363;-60
2023/04/27 02:27:41;;;;;;;33.57;13.30;;;;;;;;;;5050817;28;20284;-60
2023/04/27 02:30:08;;;;;;;31.73;15.27;;;;;;;;;;5050380;28;20315;-61
2023/04/27 02:32:34;;;;;;;31.33;15.63;;;;;;;;;;5050486;28;20084;-60
2023/04/27 02:35:00;;;;;;;34.00;14.83;;;;;;;;;;5050220;28;20337;-60
2023/04/27 02:37:26;;;;;;;31.63;13.83;;;;;;;;;;5050357;28;20703;-60
2023/04/27 02:39:52;;;;;;;32.40;15.23;;;;;;;;;;5050475;28;20357;-60
2023/04/27 02:42:19;;;;;;;35.27;15.67;;;;;;;;;;5050516;28;20793;-60
2023/04/27 02:44:46;;;;;;;32.83;15.27;;;;;;;;;;5049948;28;20514;-61
2023/04/27 02:47:12;;;;;;;34.87;14.00;;;;;;;;;;5051682;28;20700;-61
2023/04/27 02:49:38;;;;;;;33.40;14.33;;;;;;;;;;5069999;28;20311;-60
2023/04/27 02:52:04;;;;;;;37.70;15.37;;;;;;;;;;5060698;28;20295;-60
2023/04/27 02:54:30;;;;;;;34.57;14.53;;;;;;;;;;5050104;28;20299;-60
2023/04/27 02:56:57;;;;;;;30.90;14.10;;;;;;;;;;5050375;28;20283;-60
2023/04/27 02:59:23;;;;;;;29.93;13.13;;;;;;;;;;5050225;28;20671;-60
2023/04/27 03:01:49;;;;;;;35.57;14.37;;;;;;;;;;5049885;28;20314;-60
2023/04/27 03:04:16;;;;;;;26.57;13.30;;;;;;;;;;5050528;28;20287;-61
2023/04/27 03:06:42;;;;;;;23.30;12.13;;;;;;;;;;5050090;28;20326;-60
2023/04/27 03:09:09;;;;;;;27.07;12.10;;;;;;;;;;5049577;28;20315;-60
2023/04/27 03:11:35;;;;;;;25.53;11.90;;;;;;;;;;5050493;28;20053;-60
2023/04/27 03:14:01;;;;;;;23.83;11.17;;;;;;;;;;5049720;28;20582;-60
2023/04/27 03:16:27;;;;;;;24.50;10.57;;;;;;;;;;5056282;28;20290;-60
2023/04/27 03:18:53;;;;;;;22.90;10.20;;;;;;;;;;5051346;28;20696;-60
2023/04/27 03:21:19;;;;;;;23.87;10.57;;;;;;;;;;5059958;28;20357;-60
2023/04/27 03:23:45;;;;;;;22.50;9.03;;;;;;;;;;5049983;28;20789;-60
2023/04/27 03:26:12;;;;;;;20.40;10.00;;;;;;;;;;5049730;28;20285;-60
2023/04/27 03:28:38;;;;;;;20.33;8.80;;;;;;;;;;5049804;28;20100;-60
2023/04/27 03:31:07;;;;;;;21.27;9.07;;;;;;;;;;5049511;28;20304;-60
2023/04/27 03:33:33;;;;;;;19.80;7.77;;;;;;;;;;5049457;28;20287;-60
2023/04/27 03:35:59;;;;;;;10.83;5.70;;;;;;;;;;5049902;28;20287;-60
2023/04/27 03:38:26;;;;;;;21.10;6.43;;;;;;;;;;5049476;28;20812;-60
2023/04/27 03:40:52;;;;;;;15.50;7.20;;;;;;;;;;5048490;28;20307;-60
2023/04/27 03:43:19;;;;;;;10.97;6.07;;;;;;;;;;5067536;28;20287;-61
2023/04/27 03:45:45;;;;;;;12.90;7.17;;;;;;;;;;5049782;28;20673;-60
2023/04/27 03:48:12;;;;;;;11.40;6.47;;;;;;;;;;5049468;28;20311;-60
2023/04/27 03:50:38;;;;;;;13.77;7.07;;;;;;;;;;5049207;28;20393;-60
2023/04/27 03:53:04;;;;;;;14.47;7.40;;;;;;;;;;5049002;28;20310;-60
2023/04/27 03:55:30;;;;;;;15.00;6.90;;;;;;;;;;5053505;28;20788;-60
2023/04/27 03:57:56;;;;;;;13.73;7.03;;;;;;;;;;5068630;28;20556;-60
2023/04/27 04:00:23;;;;;;;18.73;7.73;;;;;;;;;;5069248;28;20283;-60
2023/04/27 04:02:50;;;;;;;16.17;7.50;;;;;;;;;;5069266;28;20279;-60
2023/04/27 04:05:17;;;;;;;15.40;7.27;;;;;;;;;;5068641;28;20274;-60
2023/04/27 04:07:43;;;;;;;17.40;8.40;;;;;;;;;;5068080;28;20290;-60
2023/04/27 04:10:09;;;;;;;20.73;9.10;;;;;;;;;;5056637;28;20788;-60
2023/04/27 04:12:35;;;;;;;17.63;9.63;;;;;;;;;;5049979;28;20294;-60
2023/04/27 04:15:02;;;;;;;25.03;10.90;;;;;;;;;;5068393;28;20614;-60
2023/04/27 04:17:28;;;;;;;20.90;9.97;;;;;;;;;;5068894;28;20631;-60
2023/04/27 04:19:54;;;;;;;26.03;10.43;;;;;;;;;;5068455;28;20355;-60
2023/04/27 04:22:20;;;;;;;28.90;11.97;;;;;;;;;;5068631;28;20663;-60
2023/04/27 04:24:46;;;;;;;37.20;15.00;;;;;;;;;;5068305;28;20360;-61
2023/04/27 04:27:12;;;;;;;36.73;15.37;;;;;;;;;;5068478;28;20286;-60
2023/04/27 04:29:39;;;;;;;32.90;14.87;;;;;;;;;;5067881;28;20310;-60
2023/04/27 04:32:06;;;;;;;28.37;13.20;;;;;;;;;;5068189;28;20343;-60
2023/04/27 04:34:32;;;;;;;34.13;14.70;;;;;;;;;;5068535;28;20294;-60
2023/04/27 04:36:58;;;;;;;37.17;16.97;;;;;;;;;;5057955;28;20298;-60
2023/04/27 04:39:26;;;;;;;31.50;13.80;;;;;;;;;;5067068;28;20287;-60
2023/04/27 04:41:52;;;;;;;26.17;11.60;;;;;;;;;;5068292;28;20672;-60
2023/04/27 04:44:19;;;;;;;35.47;13.10;;;;;;;;;;5068143;28;20283;-60
2023/04/27 04:46:46;;;;;;;33.33;15.03;;;;;;;;;;5068405;28;20280;-61
2023/04/27 04:49:12;;;;;;;38.30;15.30;;;;;;;;;;5063459;28;20321;-60
2023/04/27 04:51:41;;;;;;;31.67;13.87;;;;;;;;;;5048090;28;20284;-61
2023/04/27 04:54:07;;;;;;;38.00;14.57;;;;;;;;;;5047533;28;20056;-61
2023/04/27 04:56:33;;;;;;;36.87;15.83;;;;;;;;;;5047932;28;20841;-60
2023/04/27 04:58:59;;;;;;;36.67;15.83;;;;;;;;;;5047962;28;20286;-60
2023/04/27 05:01:26;;;;;;;36.13;17.13;;;;;;;;;;5053536;28;20348;-60
2023/04/27 05:03:52;;;;;;;38.23;16.90;;;;;;;;;;5065834;28;20769;-60
2023/04/27 05:06:18;;;;;;;37.17;17.00;;;;;;;;;;5048177;28;20362;-60
2023/04/27 05:08:44;;;;;;;39.00;18.03;;;;;;;;;;5064956;28;20588;-60
2023/04/27 05:11:10;;;;;;;40.83;18.30;;;;;;;;;;5051584;28;20307;-60
2023/04/27 05:13:37;;;;;;;40.73;17.33;;;;;;;;;;5052438;28;20347;-60
2023/04/27 05:16:06;;;;;;;43.30;18.00;;;;;;;;;;5052236;28;20288;-60
2023/04/27 05:18:35;;;;;;;35.90;16.40;;;;;;;;;;5051997;28;20783;-61
2023/04/27 05:21:01;;;;;;;41.47;18.27;;;;;;;;;;5052133;28;20314;-61
2023/04/27 05:23:27;;;;;;;35.43;16.43;;;;;;;;;;5052065;28;20287;-60
2023/04/27 05:25:53;;;;;;;33.07;16.67;;;;;;;;;;5051850;28;20314;-60
2023/04/27 05:28:22;;;;;;;41.63;20.00;;;;;;;;;;5051002;28;20048;-60
2023/04/27 05:30:48;;;;;;;35.87;16.80;;;;;;;;;;5055185;28;20389;-60
2023/04/27 05:33:14;;;;;;;33.43;17.73;;;;;;;;;;5052050;28;20291;-60
2023/04/27 05:35:40;;;;;;;32.70;15.60;;;;;;;;;;5051940;28;20362;-60
2023/04/27 05:38:07;;;;;;;32.00;15.70;;;;;;;;;;5051520;28;20808;-60
2023/04/27 05:40:32;;;;;;;40.50;17.47;;;;;;;;;;5051333;28;20742;-60
2023/04/27 05:43:02;;;;;;;40.30;18.23;;;;;;;;;;5051486;28;20280;-61
2023/04/27 05:45:28;;;;;;;42.03;18.43;;;;;;;;;;5051781;28;20048;-60
2023/04/27 05:47:54;;;;;;;53.87;23.67;;;;;;;;;;5052125;28;20306;-60
2023/04/27 05:50:20;;;;;;;41.23;18.93;;;;;;;;;;5060092;28;20410;-61
2023/04/27 05:52:46;;;;;;;40.17;17.70;;;;;;;;;;5070426;28;20070;-60
2023/04/27 05:55:12;;;;;;;31.30;14.40;;;;;;;;;;5050800;28;20314;-60
2023/04/27 05:57:38;;;;;;;39.67;19.67;;;;;;;;;;5069137;28;20043;-60
2023/04/27 06:00:09;;;;;;;36.17;17.70;;;;;;;;;;5067633;28;20044;-60
2023/04/27 06:02:35;;;;;;;29.93;14.33;;;;;;;;;;5051643;28;20318;-60
2023/04/27 06:05:02;;;;;;;28.17;15.00;;;;;;;;;;5050854;28;20791;-60
2023/04/27 06:07:28;;;;;;;29.43;15.00;;;;;;;;;;5050511;28;20095;-60
2023/04/27 06:09:54;;;;;;;34.87;15.93;;;;;;;;;;5069119;28;20299;-60
2023/04/27 06:12:21;;;;;;;27.43;13.83;;;;;;;;;;5071312;28;20317;-60
2023/04/27 06:14:47;;;;;;;29.43;15.57;;;;;;;;;;5071132;28;20283;-60
2023/04/27 06:17:13;;;;;;;27.67;14.13;;;;;;;;;;5057318;28;20288;-60
2023/04/27 06:19:39;;;;;;;40.80;16.07;;;;;;;;;;5067499;28;20279;-60
2023/04/27 06:22:05;;;;;;;27.40;14.50;;;;;;;;;;5067664;28;20711;-61
2023/04/27 06:24:31;;;;;;;33.67;15.47;;;;;;;;;;5068903;28;20286;-60
2023/04/27 06:26:57;;;;;;;24.83;14.83;;;;;;;;;;5061599;28;20291;-60
2023/04/27 06:29:23;;;;;;;33.57;17.97;;;;;;;;;;5054720;28;20311;-60
2023/04/27 06:31:50;;;;;;;30.80;15.50;;;;;;;;;;5054574;28;21042;-60
2023/04/27 06:34:16;;;;;;;24.70;12.70;;;;;;;;;;5067571;28;20332;-60
2023/04/27 06:36:42;;;;;;;22.80;11.63;;;;;;;;;;5059882;28;20299;-60
2023/04/27 06:39:08;;;;;;;23.30;10.97;;;;;;;;;;5062460;28;20064;-60
2023/04/27 06:41:34;;;;;;;16.57;10.33;;;;;;;;;;5070382;28;20278;-60
2023/04/27 06:44:00;;;;;;;18.30;10.17;;;;;;;;;;5069266;28;20052;-60
2023/04/27 06:46:26;;;;;;;17.47;10.67;;;;;;;;;;5070663;28;20094;-60
2023/04/27 06:48:52;;;;;;;15.70;9.60;;;;;;;;;;5067185;28;20044;-60
2023/04/27 06:51:18;;;;;;;19.60;9.53;;;;;;;;;;5065404;28;20052;-60
2023/04/27 06:53:47;;;;;;;17.13;7.30;;;;;;;;;;5064254;28;20034;-60
2023/04/27 06:56:14;;;;;;;18.33;7.60;;;;;;;;;;5070413;28;20139;-60
2023/04/27 06:58:40;;;;;;;16.80;8.90;;;;;;;;;;5070269;28;20194;-60
2023/04/27 07:01:06;;;;;;;15.10;8.73;;;;;;;;;;5070400;28;20507;-60
2023/04/27 07:03:34;;;;;;;13.47;8.33;;;;;;;;;;5063185;28;20438;-61
2023/04/27 07:06:00;;;;;;;15.57;8.53;;;;;;;;;;5062007;28;20503;-60
2023/04/27 07:08:26;;;;;;;17.57;9.03;;;;;;;;;;5069637;28;20053;-60
2023/04/27 07:10:52;;;;;;;19.47;9.33;;;;;;;;;;5070234;28;20044;-61
2023/04/27 07:13:18;;;;;;;12.97;6.17;;;;;;;;;;5070165;28;20048;-61
2023/04/27 07:15:44;;;;;;;14.50;7.03;;;;;;;;;;5070176;28;20445;-61
2023/04/27 07:18:11;;;;;;;9.97;5.83;;;;;;;;;;5067907;28;20041;-60
2023/04/27 07:20:37;;;;;;;9.53;5.70;;;;;;;;;;5058908;28;20052;-61
2023/04/27 07:23:03;;;;;;;12.03;6.00;;;;;;;;;;5049869;28;20053;-61
2023/04/27 07:25:30;;;;;;;9.20;3.93;;;;;;;;;;5056450;28;20048;-60
2023/04/27 07:27:58;;;;;;;7.20;4.10;;;;;;;;;;5069806;28;20052;-60
2023/04/27 07:30:24;;;;;;;13.63;4.50;;;;;;;;;;5069688;28;20563;-61
2023/04/27 07:32:53;;;;;;;10.60;5.13;;;;;;;;;;5066005;28;20518;-61
2023/04/27 07:35:19;;;;;;;11.57;4.07;;;;;;;;;;5049034;28;20045;-60
2023/04/27 07:37:47;;;;;;;5.53;3.93;;;;;;;;;;5049756;28;20045;-60
2023/04/27 07:40:15;;;;;;;7.73;3.70;;;;;;;;;;5049978;28;20045;-61
2023/04/27 07:42:47;;;;;;;8.40;4.53;;;;;;;;;;5056503;28;20053;-60
2023/04/27 07:45:14;;;;;;;9.00;3.90;;;;;;;;;;5061154;28;20411;-61
2023/04/27 07:47:41;;;;;;;8.47;4.27;;;;;;;;;;5068879;28;20060;-61
2023/04/27 07:50:07;;;;;;;8.70;3.10;;;;;;;;;;5058435;28;20052;-61
2023/04/27 07:52:33;;;;;;;6.73;2.70;;;;;;;;;;5049186;28;20045;-60
2023/04/27 07:55:00;;;;;;;8.90;2.47;;;;;;;;;;5048662;28;20041;-61
2023/04/27 07:57:26;;;;;;;7.57;2.80;;;;;;;;;;5064229;28;20062;-61
2023/04/27 07:59:52;;;;;;;5.73;3.17;;;;;;;;;;5053636;28;20237;-61
2023/04/27 08:02:18;;;;;;;7.43;2.57;;;;;;;;;;5063821;28;20049;-61
2023/04/27 08:04:44;;;;;;;6.80;3.17;;;;;;;;;;5069411;28;20044;-61
2023/04/27 08:07:10;;;;;;;8.03;2.27;;;;;;;;;;5062061;28;20040;-61
2023/04/27 08:09:36;;;;;;;6.00;2.07;;;;;;;;;;5056605;28;20044;-61
2023/04/27 08:12:02;;;;;;;5.27;2.40;;;;;;;;;;5050141;28;20047;-61
2023/04/27 08:14:29;;;;;;;5.23;2.00;;;;;;;;;;5061550;28;20110;-61
2023/04/27 08:16:55;;;;;;;3.13;1.80;;;;;;;;;;5053038;28;20045;-62
2023/04/27 08:19:21;;;;;;;4.93;2.37;;;;;;;;;;5054365;28;20032;-61
2023/04/27 08:21:47;;;;;;;4.00;1.63;;;;;;;;;;5066192;28;20072;-61
2023/04/27 08:24:13;;;;;;;5.20;1.77;;;;;;;;;;5064772;28;20045;-61
2023/04/27 08:26:40;;;;;;;6.77;1.57;;;;;;;;;;5048199;28;20060;-61
2023/04/27 08:29:07;;;;;;;6.33;1.97;;;;;;;;;;5054620;28;20059;-62
2023/04/27 08:31:33;;;;;;;5.30;1.70;;;;;;;;;;5068002;28;20135;-61
2023/04/27 08:33:59;;;;;;;3.27;1.80;;;;;;;;;;5057797;28;20527;-61
2023/04/27 08:36:26;;;;;;;7.10;1.80;;;;;;;;;;5056701;28;20037;-61
2023/04/27 08:38:52;;;;;;;4.77;2.03;;;;;;;;;;5067692;28;20079;-61
2023/04/27 08:41:20;;;;;;;5.30;2.07;;;;;;;;;;5050594;28;20044;-62
2023/04/27 08:43:48;;;;;;;4.43;1.80;;;;;;;;;;5048645;28;20091;-61
2023/04/27 08:46:17;;;;;;;6.13;2.13;;;;;;;;;;5053404;28;20044;-61
2023/04/27 08:48:43;;;;;;;7.37;1.70;;;;;;;;;;5048260;28;20052;-62
2023/04/27 08:51:10;;;;;;;3.70;1.50;;;;;;;;;;5048028;28;20049;-62
2023/04/27 08:53:36;;;;;;;5.63;2.00;;;;;;;;;;5048138;28;20044;-61
2023/04/27 08:56:04;;;;;;;4.87;2.10;;;;;;;;;;5048147;28;20083;-62
2023/04/27 08:58:36;;;;;;;3.57;1.70;;;;;;;;;;5047058;28;20141;-61
2023/04/27 09:01:06;;;;;;;6.85;1.73;;;;;;;;;;5051977;28;20098;-62
2023/04/27 09:03:33;;;;;;;3.67;1.90;;;;;;;;;;5067604;28;20040;-61
2023/04/27 09:05:59;;;;;;;5.57;2.00;;;;;;;;;;5067820;28;20094;-62
2023/04/27 09:08:26;;;;;;;4.73;1.53;;;;;;;;;;5068053;28;20063;-62
2023/04/27 09:10:53;;;;;;;4.10;1.57;;;;;;;;;;5067850;28;20048;-61
2023/04/27 09:13:20;;;;;;;7.40;2.37;;;;;;;;;;5050414;28;20040;-62
2023/04/27 09:15:47;;;;;;;5.47;1.90;;;;;;;;;;5057500;28;20048;-62
2023/04/27 09:18:17;;;;;;;6.37;2.10;;;;;;;;;;5067808;28;20059;-62
2023/04/27 09:20:44;;;;;;;5.10;1.80;;;;;;;;;;5067709;28;20045;-62
2023/04/27 09:23:10;;;;;;;6.73;2.00;;;;;;;;;;5067395;28;20489;-62
2023/04/27 09:25:36;;;;;;;3.23;1.43;;;;;;;;;;5067827;28;20048;-59
2023/04/27 09:28:02;;;;;;;4.47;1.97;;;;;;;;;;5048477;28;20052;-59
2023/04/27 09:30:29;;;;;;;7.73;2.67;;;;;;;;;;5047358;28;20061;-59
2023/04/27 09:32:56;;;;;;;5.27;2.67;;;;;;;;;;5046920;28;20091;-59
2023/04/27 09:35:22;;;;;;;3.50;1.97;;;;;;;;;;5047791;28;20041;-59
2023/04/27 09:37:52;;;;;;;3.50;1.70;;;;;;;;;;5047867;28;20080;-60
2023/04/27 09:40:29;;;;;;;6.63;2.07;;;;;;;;;;5056211;28;20094;-60
2023/04/27 09:42:57;;;;;;;5.83;2.17;;;;;;;;;;5067447;28;20077;-60
2023/04/27 09:45:24;;;;;;;3.87;2.03;;;;;;;;;;5067765;28;20056;-60
2023/04/27 09:47:50;;;;;;;7.00;3.00;;;;;;;;;;5066998;28;20565;-60
2023/04/27 09:50:16;;;;;;;7.30;1.93;;;;;;;;;;5067148;28;20056;-60
2023/04/27 09:52:43;;;;;;;4.53;2.10;;;;;;;;;;5067119;28;20045;-60
2023/04/27 09:55:10;;;;;;;4.97;1.90;;;;;;;;;;5069724;28;20470;-60
2023/04/27 09:57:45;;;;;;;3.40;1.93;;;;;;;;;;5071238;28;20126;-60
2023/04/27 10:00:50;;;;;;;5.00;1.93;;;;;;;;;;5070628;28;20052;-60
2023/04/27 10:03:27;;;;;;;5.73;2.10;;;;;;;;;;5047985;28;20049;-60
2023/04/27 10:06:12;;;;;;;3.77;2.10;;;;;;;;;;5048123;28;20060;-60
2023/04/27 10:08:38;;;;;;;5.80;2.07;;;;;;;;;;5049883;28;20057;-60
2023/04/27 10:11:19;;;;;;;4.97;2.27;;;;;;;;;;5050872;28;20037;-60
2023/04/27 10:13:52;;;;;;;4.80;2.20;;;;;;;;;;5050456;28;20047;-60
2023/04/27 10:16:19;;;;;;;5.05;2.40;;;;;;;;;;5061065;28;20045;-61
2023/04/27 10:18:55;;;;;;;4.73;1.93;;;;;;;;;;5070910;28;20052;-61
2023/04/27 10:21:22;;;;;;;7.40;2.47;;;;;;;;;;5070057;28;20190;-61
2023/04/27 10:23:52;;;;;;;5.97;2.20;;;;;;;;;;5070891;28;20091;-61
2023/04/27 10:26:24;;;;;;;4.10;2.60;;;;;;;;;;5070485;28;20044;-61
2023/04/27 10:29:07;;;;;;;8.25;2.28;;;;;;;;;;5050900;28;20152;-61
2023/04/27 10:31:33;;;;;;;6.67;3.17;;;;;;;;;;5050366;28;20069;-61
2023/04/27 10:34:09;;;;;;;5.83;2.90;;;;;;;;;;5050307;28;20407;-61
2023/04/27 10:36:36;;;;;;;5.33;2.37;;;;;;;;;;5050039;28;20415;-60
2023/04/27 10:39:04;;;;;;;7.50;3.20;;;;;;;;;;5049914;28;20076;-61
2023/04/27 10:41:36;;;;;;;5.10;2.33;;;;;;;;;;5050195;28;20045;-61
2023/04/27 10:44:28;;;;;;;5.83;2.90;;;;;;;;;;5049185;28;20926;-61
2023/04/27 10:46:55;;;;;;;5.47;2.63;;;;;;;;;;5049949;28;20041;-61
2023/04/27 10:49:21;;;;;;;7.33;3.37;;;;;;;;;;5050059;28;20053;-61
2023/04/27 10:51:49;;;;;;;6.37;2.60;;;;;;;;;;5049976;28;20102;-61
2023/04/27 10:54:15;;;;;;;7.10;2.60;;;;;;;;;;5050081;28;20053;-61
2023/04/27 10:56:42;;;;;;;4.57;2.30;;;;;;;;;;5054629;28;20051;-61
2023/04/27 10:59:08;;;;;;;4.23;2.47;;;;;;;;;;5070078;28;20055;-61
2023/04/27 11:01:35;;;;;;;6.97;2.60;;;;;;;;;;5070046;28;20131;-61
2023/04/27 11:04:02;;;;;;;4.90;2.60;;;;;;;;;;5069856;28;20502;-60
2023/04/27 11:06:29;;;;;;;6.37;3.00;;;;;;;;;;5068468;28;20498;-62
2023/04/27 11:08:55;;;;;;;4.73;2.70;;;;;;;;;;5069623;28;20044;-61
2023/04/27 11:11:23;;;;;;;4.20;2.53;;;;;;;;;;5049876;28;20132;-61
2023/04/27 11:13:51;;;;;;;4.77;2.50;;;;;;;;;;5049991;28;20067;-61
2023/04/27 11:16:20;;;;;;;4.70;2.33;;;;;;;;;;5049574;28;20507;-61
2023/04/27 11:18:46;;;;;;;5.50;2.60;;;;;;;;;;5049795;28;20467;-60
2023/04/27 11:21:14;;;;;;;4.53;2.80;;;;;;;;;;5048892;28;20510;-61
2023/04/27 11:23:41;;;;;;;5.33;2.67;;;;;;;;;;5049536;28;20056;-60
2023/04/27 11:26:17;;;;;;;4.53;2.30;;;;;;;;;;5050060;28;20049;-61
2023/04/27 11:28:44;;;;;;;6.63;3.33;;;;;;;;;;5049266;28;20057;-61
2023/04/27 11:31:10;;;;;;;3.77;2.63;;;;;;;;;;5049233;28;20053;-61
2023/04/27 11:33:38;;;;;;;5.00;3.27;;;;;;;;;;5048981;28;20119;-61
2023/04/27 11:36:15;;;;;;;5.27;3.00;;;;;;;;;;5049101;28;20590;-61
2023/04/27 11:38:42;;;;;;;4.20;2.47;;;;;;;;;;5049788;28;20053;-61
2023/04/27 11:41:08;;;;;;;6.87;2.60;;;;;;;;;;5068564;28;20499;-61
2023/04/27 11:43:34;;;;;;;4.20;2.67;;;;;;;;;;5069339;28;20051;-61
2023/04/27 11:46:05;;;;;;;5.07;2.50;;;;;;;;;;5068982;28;20044;-61
2023/04/27 11:48:31;;;;;;;8.57;2.60;;;;;;;;;;5068836;28;20063;-61
2023/04/27 11:50:59;;;;;;;6.60;3.17;;;;;;;;;;5051515;28;20049;-61
2023/04/27 11:53:32;;;;;;;5.43;2.70;;;;;;;;;;5048666;28;20049;-61
2023/04/27 11:56:00;;;;;;;6.83;3.23;;;;;;;;;;5048991;28;20802;-61
2023/04/27 11:58:28;;;;;;;5.40;2.60;;;;;;;;;;5049063;28;20424;-61
2023/04/27 12:00:55;;;;;;;5.47;3.00;;;;;;;;;;5048908;28;20110;-61
2023/04/27 12:03:21;;;;;;;5.27;2.87;;;;;;;;;;5048497;28;20518;-61
2023/04/27 12:05:51;;;;;;;6.70;3.30;;;;;;;;;;5047955;28;20072;-61
2023/04/27 12:08:17;;;;;;;5.00;2.63;;;;;;;;;;5048520;28;20089;-62
2023/04/27 12:10:44;;;;;;;4.90;3.27;;;;;;;;;;5048620;28;20556;-61
2023/04/27 12:13:11;;;;;;;4.83;2.87;;;;;;;;;;5048537;28;20897;-61
2023/04/27 12:15:37;;;;;;;8.57;3.27;;;;;;;;;;5060620;28;20048;-61
2023/04/27 12:18:03;;;;;;;5.67;2.70;;;;;;;;;;5068207;28;20037;-61
2023/04/27 12:20:30;;;;;;;4.27;2.53;;;;;;;;;;5068333;28;20044;-61
2023/04/27 12:22:59;;;;;;;6.00;2.83;;;;;;;;;;5068472;28;20561;-61
2023/04/27 12:25:25;;;;;;;6.50;3.20;;;;;;;;;;5068238;28;20055;-61
2023/04/27 12:27:52;;;;;;;5.60;3.00;;;;;;;;;;5068137;28;20040;-61
2023/04/27 12:30:18;;;;;;;5.18;2.92;;;;;;;;;;5067862;28;20064;-61
2023/04/27 12:32:45;;;;;;;5.38;2.85;;;;;;;;;;5068410;28;20048;-62
2023/04/27 12:35:11;;;;;;;4.38;2.60;;;;;;;;;;5068175;28;20047;-61
2023/04/27 12:37:38;;;;;;;5.80;2.83;;;;;;;;;;5067663;28;20049;-62
2023/04/27 12:40:05;;;;;;;5.88;2.70;;;;;;;;;;5067363;28;20036;-61
2023/04/27 12:42:31;;;;;;;4.80;3.15;;;;;;;;;;5056298;28;20051;-62
2023/04/27 12:44:57;;;;;;;6.78;3.42;;;;;;;;;;5048102;28;20049;-61
2023/04/27 12:47:24;;;;;;;6.43;3.10;;;;;;;;;;5048308;28;20044;-61
2023/04/27 12:49:50;;;;;;;6.28;3.03;;;;;;;;;;5049046;28;20051;-62
2023/04/27 12:52:16;;;;;;;6.60;3.67;;;;;;;;;;5049063;28;20144;-61
2023/04/27 12:54:42;;;;;;;4.97;2.88;;;;;;;;;;5054146;28;20089;-62
2023/04/27 12:57:09;;;;;;;5.00;2.72;;;;;;;;;;5068044;28;20048;-61
2023/04/27 12:59:35;;;;;;;7.68;2.70;;;;;;;;;;5068116;28;20057;-61
2023/04/27 13:02:02;;;;;;;4.03;2.85;;;;;;;;;;5065549;28;20312;-62
2023/04/27 13:04:31;;;;;;;7.60;2.85;;;;;;;;;;5061123;28;20088;-62
2023/04/27 13:07:02;;;;;;;6.32;3.05;;;;;;;;;;5067965;28;20053;-61
2023/04/27 13:09:28;;;;;;;5.03;2.90;;;;;;;;;;5056448;28;20045;-62
2023/04/27 13:11:54;;;;;;;4.97;2.40;;;;;;;;;;5063320;28;20097;-61
2023/04/27 13:14:20;;;;;;;6.22;2.97;;;;;;;;;;5068090;28;20450;-62
2023/04/27 13:16:47;;;;;;;7.13;3.30;;;;;;;;;;5067885;28;20047;-61
2023/04/27 13:19:13;;;;;;;5.30;3.13;;;;;;;;;;5054222;28;20041;-62
2023/04/27 13:21:39;;;;;;;5.32;2.50;;;;;;;;;;5047355;28;20067;-62
2023/04/27 13:24:05;;;;;;;5.07;2.92;;;;;;;;;;5047630;28;20131;-61
2023/04/27 13:26:31;;;;;;;4.60;2.88;;;;;;;;;;5047648;28;20068;-62
2023/04/27 13:28:57;;;;;;;6.50;2.83;;;;;;;;;;5054739;28;20394;-62
2023/04/27 13:31:24;;;;;;;4.88;2.67;;;;;;;;;;5071025;28;20056;-61
2023/04/27 13:33:50;;;;;;;6.63;3.33;;;;;;;;;;5071703;28;20395;-61
2023/04/27 13:36:16;;;;;;;7.47;3.00;;;;;;;;;;5071500;28;20044;-61
2023/04/27 13:38:42;;;;;;;5.90;2.38;;;;;;;;;;5071630;28;20051;-62
2023/04/27 13:41:08;;;;;;;4.45;2.53;;;;;;;;;;5070908;28;20041;-61
2023/04/27 13:43:34;;;;;;;4.70;2.90;;;;;;;;;;5071161;28;20125;-62
2023/04/27 13:46:01;;;;;;;5.07;2.45;;;;;;;;;;5071178;28;20502;-62
2023/04/27 13:48:27;;;;;;;5.30;2.58;;;;;;;;;;5071253;28;20048;-62
2023/04/27 13:50:54;;;;;;;4.13;2.20;;;;;;;;;;5071215;28;20052;-61
2023/04/27 13:53:24;;;;;;;5.20;2.42;;;;;;;;;;5069446;28;20045;-61
2023/04/27 13:55:50;;;;;;;7.05;2.42;;;;;;;;;;5051329;28;20494;-61
2023/04/27 13:58:16;;;;;;;6.15;2.83;;;;;;;;;;5051143;28;20194;-61
2023/04/27 14:00:42;;;;;;;6.75;2.60;;;;;;;;;;5051007;28;20052;-62
2023/04/27 14:03:08;;;;;;;5.40;2.47;;;;;;;;;;5050578;28;20056;-61
2023/04/27 14:05:34;;;;;;;4.88;2.00;;;;;;;;;;5051323;28;20049;-61
2023/04/27 14:08:00;;;;;;;5.57;2.50;;;;;;;;;;5051239;28;20064;-62
2023/04/27 14:10:26;;;;;;;6.97;2.55;;;;;;;;;;5071012;28;20426;-62
2023/04/27 14:12:53;;;;;;;8.25;2.40;;;;;;;;;;5070828;28;20049;-62
2023/04/27 14:15:19;;;;;;;5.32;2.75;;;;;;;;;;5070617;28;20127;-62
2023/04/27 14:17:45;;;;;;;5.93;2.90;;;;;;;;;;5070893;28;20066;-62
2023/04/27 14:20:11;;;;;;;6.15;2.75;;;;;;;;;;5055294;28;20322;-62
2023/04/27 14:22:37;;;;;;;4.55;2.47;;;;;;;;;;5050849;28;20045;-62
2023/04/27 14:25:03;;;;;;;7.13;2.95;;;;;;;;;;5050178;28;20105;-62
2023/04/27 14:27:29;;;;;;;4.93;2.83;;;;;;;;;;5050675;28;20036;-62
2023/04/27 14:29:55;;;;;;;8.50;3.07;;;;;;;;;;5050116;28;20053;-62
2023/04/27 14:32:22;;;;;;;6.30;2.67;;;;;;;;;;5050835;28;20070;-61